עמוד ראשי
METAR-TAF:

METAR-TAF

שדות תעופה :

St. Petersburg-Clearwater International Airport

סיינט פיטרסברג-Clearwater, פלורידה, ארצות הברית

קו רוחב: 27-54-44N, קו אורך: 082-41-08W, גובה: 3מטר

תצפית מזג אוויר נוכחית

הדו"ח נערך לפני 24דקות, בשעה 20:53 UTC
רוח 14קשר מכיוון מזרח עם משבים עד 23קשר
טמפרטורת 33 צלסיוס
לחות 49%
לחץ 1014 hPa
ראות: 16.1קילומטר
שמיים נקיים

METAR: KPIE 172053Z 09014G23KT 10SM CLR 33/21 A2994 RMK AO2 SLP137 T03330206 56021

זמן: 17:17 (21:17 UTC)

תחזית

הדו"ח נערך לפני 3 שעות ו 57דקות, בשעה 17:20 UTC
תחזית בתוקף מ 17 ב 18 UTC עד 18 ב 18 UTC
רוח 12קשר מכיוון מזרח עם משבים עד 21קשר
ראות: 10קילומטר
מעט עננים בגובה 2500רגל
עננים פזורים בגובה 25000רגל
מ 18 ב 0500UTC
רוח 10קשר מכיוון מזרח
ראות: 10קילומטר
עננים פזורים בגובה 25000רגל
מ 18 ב 1300UTC
רוח 12קשר מכיוון מזרח עם משבים עד 20קשר
ראות: 10קילומטר
מעט עננים בגובה 4000רגל
עננים פזורים בגובה 25000רגל

TAF: KPIE 171720Z 1718/1818 08012G21KT P6SM FEW025 SCT250 FM180500 09010KT P6SM SCT250 FM181300 09012G20KT P6SM FEW040 SCT250

תצפיות ותחזיות מזג אוויר לגבי יותר מ- 4,000 שדות תעופה ברחבי העולם. דוחות METAR ו- TAF.

התחנות הזמינות מסומנות בנקודות צהובות ואדומות על גבי המפה.

העבר את העכבר לנקודה הצבעונית על מנת לראות את שם התחנה.

לאחר מכן, לחץ כדי לראות את תוכן ואת תחזיות מזג האוויר.

כדי לשנות את המפה: לחץ על הכפתורים הירוקים עם הפלוס השחור כדי להתקרב; על הכפתור הירוק עם המקף כדי להתרחק; או בחיצים הירוקים למפות סמוכות.


METAR-TAF: